• Join FlightAware (Why Join?)
  • Login
  • US Flag 
03:53PM EDT


 

Airport Tracker/Info


-or-


 

Live Flight TrackerFlight Track Log ✈ SWA1362 ✈ 27-Apr-2013 ✈ KMDW - KSAN

Flight Track Log - Related Links

Times and Time Zones

All times are in EDT time to prevent confusion due to time zone crossing. See the SWA1362 flight status page for this flight to view local times or setup timezone preferences in your user account.

Time Position Orientation Groundspeed Altitude Reporting Facility
EDT Latitude Longitude Course Direction KTS MPH feet Rate Location/Type
10:47AM 41.7667 -87.8167 283° West 182 209 3,000  Level Chicago TRACON
10:48AM 41.7667 -87.9000 270° West 233 268 5,600 2,520 Climbing Chicago TRACON
10:48AM 41.7592 -87.9228 246° West 221 254 6,200 2,040 Climbing Chicago Center
10:49AM 41.7606 -88.0233 271° West 273 314 8,300 2,520 Climbing Chicago Center
10:50AM 41.7603 -88.1311 270° West 293 337 11,400 2,400 Climbing Chicago Center
10:51AM 41.7586 -88.2408 269° West 298 343 13,300 1,500 Climbing Chicago Center
10:52AM 41.9327 -88.6625 283° West  Level FlightAware Approximate
10:52AM 41.7569 -88.3617 269° West 326 375 14,500  Level Chicago Center
10:53AM 41.7528 -88.5322 268° West 382 440 16,800 1,980 Climbing Chicago Center
10:54AM 41.7494 -88.6828 268° West 405 466 18,600 1,800 Climbing Chicago Center
10:55AM 41.7336 -88.8372 262° West 426 490 20,500 1,740 Climbing Chicago Center
10:56AM 41.6992 -88.9894 253° West 432 497 22,300 1,500 Climbing Chicago Center
10:57AM 41.6633 -89.1489 253° West 449 517 23,700 1,380 Climbing Chicago Center
10:58AM 41.6283 -89.3133 254° West 462 532 25,200 1,800 Climbing Chicago Center
10:59AM 41.5833 -89.5119 253° West 468 539 27,400 2,160 Climbing Chicago Center
11:00AM 41.5489 -89.6628 253° West 455 524 29,700 1,980 Climbing Chicago Center
11:01AM 41.5142 -89.8139 253° West 432 497 31,500 1,620 Climbing Chicago Center
11:02AM 41.4794 -89.9631 253° West 425 489 33,100 1,620 Climbing Chicago Center
11:03AM 41.4472 -90.1067 253° West 411 473 34,900 1,380 Climbing Chicago Center
11:04AM 41.4092 -90.2697 253° West 390 449 36,000 480 Climbing Chicago Center
11:05AM 41.3775 -90.4056 253° West 388 447 36,000  Level Chicago Center
11:06AM 41.3444 -90.5428 252° West 391 450 36,000  Level Chicago Center
11:07AM 41.3086 -90.6869 252° West 406 467 36,000  Level Chicago Center
11:08AM 41.2664 -90.8236 248° West 402 463 36,000  Level Chicago Center
11:09AM 41.2253 -90.9625 249° West 405 466 36,000  Level Chicago Center
11:10AM 41.1844 -91.1028 249° West 409 471 36,000  Level Chicago Center
11:11AM 41.1342 -91.2703 248° West 409 471 36,000  Level Chicago Center
11:13AM 41.0922 -91.4108 248° West 411 473 36,000  Level Chicago Center
11:14AM 41.0492 -91.5517 248° West 413 475 36,000  Level Chicago Center
11:15AM 41.0189 -91.7025 255° West 411 473 36,000  Level Chicago Center
11:16AM 40.9914 -91.8506 256° West 417 480 36,000  Level Chicago Center
11:17AM 40.9631 -91.9975 256° West 418 481 36,000  Level Chicago Center
11:18AM 40.9350 -92.1442 256° West 416 479 36,000  Level Chicago Center
11:19AM 40.9011 -92.3200 256° West 417 480 36,000  Level Chicago Center
11:20AM 40.8717 -92.4678 255° West 420 483 36,000  Level Chicago Center
11:21AM 40.8425 -92.6144 255° West 419 482 36,000  Level Chicago Center
11:22AM 40.8136 -92.7622 256° West 421 484 36,000  Level Chicago Center
11:23AM 40.7833 -92.9100 255° West 423 487 36,000  Level Chicago Center
11:23AM 40.7717 -92.9700 256° West 421 484 36,000  Level Minneapolis Center
11:24AM 40.7411 -93.1211 255° West 428 493 36,000  Level Minneapolis Center
11:25AM 40.7108 -93.2667 255° West 421 484 36,000  Level Minneapolis Center
11:26AM 40.6817 -93.4158 256° West 422 486 36,000  Level Minneapolis Center
11:27AM 40.6392 -93.6014 253° West 438 504 36,000  Level Minneapolis Center
11:28AM 40.6081 -93.7536 255° West 438 504 36,000  Level Minneapolis Center
11:29AM 40.5758 -93.9111 255° West 441 507 36,000  Level Minneapolis Center
11:30AM 40.5433 -94.0647 254° West 444 511 36,000  Level Minneapolis Center
11:31AM 40.5078 -94.2222 254° West 450 518 36,000  Level Minneapolis Center
11:32AM 40.4833 -94.3483 256° West 451 519 36,000  Level Minneapolis Center
11:33AM 40.4411 -94.5392 254° West 456 525 36,000  Level Minneapolis Center
11:35AM 40.4044 -94.7081 254° West 455 524 36,000  Level Minneapolis Center
11:36AM 40.3564 -94.9333 254° West 457 526 36,000  Level Minneapolis Center
11:37AM 40.3194 -95.0933 253° West 457 526 36,000  Level Minneapolis Center
11:38AM 40.2839 -95.2556 254° West 459 528 36,000  Level Minneapolis Center
11:39AM 40.2483 -95.4164 254° West 459 528 36,000  Level Minneapolis Center
11:40AM 40.2122 -95.5767 254° West 459 528 36,000  Level Minneapolis Center
11:41AM 40.1758 -95.7392 254° West 462 532 36,000  Level Minneapolis Center
11:42AM 40.1389 -95.8978 253° West 458 527 36,000  Level Minneapolis Center
11:43AM 40.1017 -96.0564 253° West 456 525 36,000  Level Minneapolis Center
11:44AM 40.0642 -96.2186 253° West 462 532 36,000  Level Minneapolis Center
11:45AM 40.0192 -96.4117 253° West 463 533 36,000  Level Minneapolis Center
11:46AM 39.9814 -96.5714 253° West 462 532 36,000  Level Minneapolis Center
11:47AM 39.9419 -96.7319 252° West 463 533 36,000  Level Minneapolis Center
11:48AM 39.9036 -96.8942 253° West 466 536 36,000  Level Minneapolis Center
11:49AM 39.8603 -97.0747 253° West 467 537 36,000  Level Kansas City Center
11:50AM 39.8256 -97.2181 253° West 467 537 36,000  Level Minneapolis Center
11:51AM 39.7811 -97.3981 252° West 469 540 36,000  Level Minneapolis Center
11:52AM 39.7339 -97.5911 252° West 467 537 36,000  Level Minneapolis Center
11:53AM 39.6933 -97.7528 252° West 468 539 36,000  Level Minneapolis Center
11:54AM 39.6533 -97.9108 252° West 463 533 36,000  Level Minneapolis Center
11:55AM 39.6167 -98.0547 252° West 467 537 36,000  Level Kansas City Center
11:56AM 39.5775 -98.2100 252° West 458 527 36,000  Level Kansas City Center
11:57AM 39.5369 -98.3669 252° West 460 529 36,000  Level Kansas City Center
11:58AM 39.4969 -98.5242 252° West 460 529 36,000  Level Kansas City Center
11:59AM 39.4439 -98.7314 252° West 460 529 36,000  Level Minneapolis Center
12:00PM 39.4025 -98.8897 251° West 462 532 36,000  Level Denver Center
12:02PM 39.3594 -99.0517 251° West 459 528 36,000  Level Denver Center
12:03PM 39.3192 -99.2042 251° West 466 536 36,000  Level Denver Center
12:04PM 39.2725 -99.3800 251° West 465 535 36,000  Level Denver Center
12:05PM 39.2322 -99.5306 251° West 464 534 36,000  Level Denver Center
12:06PM 39.1825 -99.7114 251° West 468 539 36,000  Level Denver Center
12:07PM 39.1422 -99.8633 251° West 469 540 36,000  Level Denver Center
12:08PM 39.0942 -100.0383 251° West 472 543 36,000  Level Denver Center
12:09PM 39.0528 -100.1883 250° West 467 537 36,000  Level Denver Center
12:10PM 39.0114 -100.3386 251° West 466 536 36,000  Level Denver Center
12:11PM 38.9622 -100.5122 250° West 465 535 36,000  Level Denver Center
12:12PM 38.9208 -100.6622 251° West 465 535 36,000  Level Denver Center
12:13PM 38.8717 -100.8389 250° West 470 541 36,000  Level Denver Center
12:14PM 38.8286 -100.9864 249° West 465 535 36,000  Level Denver Center
12:15PM 38.7792 -101.1631 250° West 472 543 36,000  Level Denver Center
12:16PM 38.7358 -101.3125 250° West 470 541 36,000  Level Denver Center
12:17PM 38.6856 -101.4869 250° West 471 542 36,000  Level Denver Center
12:18PM 38.6411 -101.6378 249° West 474 545 36,000  Level Denver Center
12:19PM 38.5908 -101.8106 250° West 468 539 36,000  Level Denver Center
12:20PM 38.5472 -101.9597 250° West 468 539 36,000  Level Denver Center
12:21PM 38.5033 -102.1078 249° West 469 540 36,000  Level Denver Center
12:22PM 38.4517 -102.2803 249° West 467 537 36,000  Level Denver Center
12:23PM 38.4069 -102.4275 249° West 467 537 36,000  Level Denver Center
12:24PM 38.3567 -102.5989 250° West 465 535 36,000  Level Denver Center
12:25PM 38.3122 -102.7464 249° West 466 536 36,000  Level Denver Center
12:26PM 38.2608 -102.9161 249° West 462 532 36,000  Level Denver Center
12:27PM 38.2156 -103.0617 248° West 463 533 36,000  Level Denver Center
12:28PM 38.1681 -103.2178 249° West 461 531 36,000  Level Denver Center
12:29PM 38.1156 -103.3872 249° West 463 533 36,000  Level Denver Center
12:30PM 38.0703 -103.5328 248° West 465 535 36,000  Level Denver Center
12:31PM 38.0172 -103.7008 248° West 463 533 36,000  Level Denver Center
12:32PM 37.9719 -103.8458 248° West 465 535 36,000  Level Denver Center
12:33PM 37.9194 -104.0125 248° West 460 529 36,000  Level Denver Center
12:34PM 37.8736 -104.1544 248° West 459 528 36,000  Level Denver Center
12:36PM 37.8214 -104.3200 248° West 457 526 36,000  Level Denver Center
12:37PM 37.7750 -104.4614 247° West 458 527 36,000  Level Denver Center
12:38PM 37.7222 -104.6267 248° West 455 524 36,000  Level Denver Center
12:39PM 37.6767 -104.7683 248° West 456 525 36,000  Level Denver Center
12:40PM 37.6214 -104.9317 247° West 456 525 36,000  Level Denver Center
12:41PM 37.5761 -105.0742 248° West 456 525 36,000  Level Denver Center
12:42PM 37.5219 -105.2386 247° West 458 527 36,000  Level Denver Center
12:43PM 37.4744 -105.3803 247° West 460 529 36,000  Level Denver Center
12:44PM 37.4208 -105.5464 248° West 458 527 36,000  Level Denver Center
12:45PM 37.3706 -105.6850 246° West 457 526 36,000  Level Denver Center
12:46PM 37.3242 -105.8272 248° West 458 527 36,000  Level Denver Center
12:47PM 37.2686 -105.9906 247° West 456 525 36,000  Level Denver Center
12:48PM 37.2208 -106.1306 247° West 456 525 36,000  Level Denver Center
12:49PM 37.1653 -106.2942 247° West 457 526 36,000  Level Denver Center
12:50PM 37.1178 -106.4331 247° West 455 524 36,000  Level Denver Center
12:51PM 37.0619 -106.5947 247° West 454 522 36,000  Level Denver Center
12:52PM 37.0131 -106.7344 246° West 456 525 36,000  Level Denver Center
12:53PM 36.9564 -106.8950 246° West 454 522 36,000  Level Denver Center
12:54PM 36.9083 -107.0331 247° West 452 520 36,000  Level Denver Center
12:55PM 36.8511 -107.1936 246° West 454 522 36,000  Level Denver Center
12:56PM 36.8025 -107.3322 246° West 456 525 36,000  Level Denver Center
12:57PM 36.7450 -107.4950 246° West 457 526 36,000  Level Denver Center
12:58PM 36.6947 -107.6328 246° West 457 526 36,000  Level Denver Center
12:59PM 36.6372 -107.7944 246° West 457 526 36,000  Level Denver Center
01:00PM 36.5878 -107.9325 246° West 456 525 36,000  Level Denver Center
01:01PM 36.5286 -108.0931 245° Southwest 456 525 36,000  Level Denver Center
01:02PM 36.4792 -108.2297 246° West 455 524 36,000  Level Denver Center
01:03PM 36.4283 -108.3656 245° Southwest 453 521 36,000  Level Denver Center
01:04PM 36.3708 -108.5244 246° West 453 521 36,000  Level Denver Center
01:06PM 36.3206 -108.6597 245° Southwest 452 520 36,000  Level Denver Center
01:07PM 36.2636 -108.8161 246° West 451 519 36,000  Level Denver Center
01:08PM 36.2053 -108.9711 245° Southwest 452 520 36,000  Level Denver Center
01:09PM 36.1547 -109.1028 245° Southwest 451 519 36,000  Level Denver Center
01:09PM 36.1128 -109.2122 245° Southwest 449 517 36,000  Level Albuquerque Center
01:10PM 36.0625 -109.3447 245° Southwest 446 513 36,000  Level Albuquerque Center
01:11PM 36.0458 -109.3897 245° Southwest 447 514 36,000  Level Denver Center
01:12PM 35.9861 -109.5450 245° Southwest 448 516 36,000  Level Denver Center
01:13PM 35.9356 -109.6775 245° Southwest 446 513 36,000  Level Denver Center
01:14PM 35.8764 -109.8325 245° Southwest 448 516 36,000  Level Denver Center
01:14PM 35.8394 -109.9197 242° Southwest 449 517 36,000  Level Albuquerque Center
01:16PM 35.7872 -110.0519 244° Southwest 449 517 36,000  Level Albuquerque Center
01:17PM 35.7267 -110.2078 244° Southwest 450 518 36,000  Level Albuquerque Center
01:18PM 35.6742 -110.3403 244° Southwest 450 518 36,000  Level Albuquerque Center
01:19PM 35.6136 -110.4939 244° Southwest 449 517 36,000  Level Albuquerque Center
01:20PM 35.5622 -110.6269 245° Southwest 449 517 36,000  Level Albuquerque Center
01:21PM 35.5014 -110.7806 244° Southwest 449 517 36,000  Level Albuquerque Center
01:22PM 35.4494 -110.9108 244° Southwest 445 512 36,000  Level Albuquerque Center
01:23PM 35.3892 -111.0636 244° Southwest 446 513 36,000  Level Albuquerque Center
01:24PM 35.3364 -111.1944 244° Southwest 447 514 36,000  Level Albuquerque Center
01:25PM 35.2803 -111.3433 245° Southwest 459 528 36,000  Level Albuquerque Center
01:26PM 35.2253 -111.4811 244° Southwest 455 524 36,000  Level Albuquerque Center
01:27PM 35.1692 -111.6181 243° Southwest 454 522 36,000  Level Albuquerque Center
01:28PM 35.1014 -111.7603 240° Southwest 453 521 36,000  Level Albuquerque Center
01:29PM 35.0292 -111.8875 235° Southwest 457 526 36,000  Level Albuquerque Center
01:30PM 34.9583 -112.0172 236° Southwest 458 527 36,000  Level Albuquerque Center
01:31PM 34.8878 -112.1444 236° Southwest 457 526 36,000  Level Albuquerque Center
01:32PM 34.8044 -112.2969 236° Southwest 452 520 36,000  Level Albuquerque Center
01:33PM 34.7350 -112.4211 236° Southwest 448 516 36,000  Level Albuquerque Center
01:34PM 34.6822 -112.5558 245° Southwest 448 516 36,000  Level Albuquerque Center
01:35PM 34.6447 -112.6964 252° West 441 507 36,000 -240 Level Albuquerque Center
01:36PM 34.6081 -112.8375 253° West 439 505 35,600 -660 Descending Albuquerque Center
01:37PM 34.5708 -112.9772 252° West 438 504 34,700 -840 Descending Albuquerque Center
01:38PM 34.5336 -113.1192 252° West 440 506 34,000 -360 Descending Albuquerque Center
01:39PM 34.4867 -113.2883 251° West 441 507 34,000  Level Albuquerque Center
01:40PM 34.4489 -113.4281 252° West 440 506 34,000  Level Albuquerque Center
01:41PM 34.4075 -113.5803 252° West 441 507 34,000  Level Albuquerque Center
01:42PM 34.3739 -113.7050 252° West 444 511 34,000  Level Albuquerque Center
01:43PM 34.3269 -113.8753 252° West 445 512 34,000  Level Albuquerque Center
01:44PM 34.2872 -114.0186 251° West 448 516 34,000 -60 Level Albuquerque Center
01:45PM 34.2478 -114.1608 251° West 446 513 33,900 -900 Descending Albuquerque Center
01:46PM 34.2078 -114.3056 252° West 451 519 32,200 -1,320 Descending Albuquerque Center
01:48PM 34.1672 -114.4514 251° West 454 522 31,200 -1,020 Descending Albuquerque Center
01:48PM 34.1547 -114.4942 251° West 467 537 30,900 -1,080 Descending Los Angeles Center
01:49PM 34.1150 -114.6369 251° West 452 520 29,800 -1,140 Descending Los Angeles Center
01:50PM 34.0492 -114.8000 244° Southwest 453 521 28,600 -900 Descending Los Angeles Center
01:51PM 33.9925 -114.9328 243° Southwest 447 514 28,000 -300 Descending Los Angeles Center
01:52PM 33.9350 -115.0617 242° Southwest 440 506 28,000  Level Los Angeles Center
01:53PM 33.8761 -115.1911 241° Southwest 443 510 28,000  Level Los Angeles Center
01:54PM 33.8183 -115.3219 242° Southwest 444 511 28,000  Level Los Angeles Center
01:55PM 33.7603 -115.4528 242° Southwest 446 513 28,000  Level Los Angeles Center
01:56PM 33.6906 -115.6075 242° Southwest 441 507 28,000 -360 Level Los Angeles Center
01:57PM 33.6183 -115.7633 241° Southwest 445 512 27,200 -1,440 Descending Los Angeles Center
01:58PM 33.5508 -115.8817 236° Southwest 434 499 25,000 -2,040 Descending Los Angeles Center
01:59PM 33.4731 -115.9867 228° Southwest 426 490 23,100 -2,100 Descending Los Angeles Center
02:00PM 33.3833 -116.0736 219° Southwest 417 480 20,700 -2,460 Descending Los Angeles Center
02:01PM 33.2781 -116.1778 220° Southwest 411 473 18,100 -1,980 Descending Los Angeles Center
02:02PM 33.1944 -116.2603 220° Southwest 399 459 16,700 -1,260 Descending Los Angeles Center
02:04PM 33.1206 -116.3311 219° Southwest 356 410 15,600 -1,140 Descending Los Angeles Center
02:05PM 33.0525 -116.3983 220° Southwest 335 386 14,400 -1,320 Descending Los Angeles Center
02:06PM 32.9858 -116.4656 220° Southwest 320 368 12,900 -1,380 Descending Los Angeles Center
02:07PM 32.9258 -116.5644 234° Southwest 310 357 11,600 -1,320 Descending Los Angeles Center
02:08PM 32.8739 -116.6392 230° Southwest 299 344 10,200 -1,320 Descending Los Angeles Center
02:09PM 32.8231 -116.7133 231° Southwest 295 339 8,900 -1,380 Descending Los Angeles Center
02:10PM 32.7725 -116.7886 231° Southwest 293 337 7,400 -1,500 Descending Los Angeles Center
02:11PM 32.7233 -116.8594 230° Southwest 286 329 5,800 -1,680 Descending Los Angeles Center
02:11PM 32.7000 -116.9000 236° Southwest 272 313 5,100 -1,500 Descending Southern California TRACON
02:12PM 32.6833 -116.9667 253° West 263 303 3,800 -960 Descending Southern California TRACON
02:13PM 32.7000 -117.0500 283° West 200 230 3,200 -900 Descending Southern California TRACON
02:14PM 32.7167 -117.0833 301° West 145 167 2,100 -1,200 Descending Southern California TRACON
02:15PM 32.7167 -117.1333 270° West 140 161 900 -1,020 Descending Southern California TRACON
02:16PM 32.7275 -117.1633 293° West 140 161 300 -780 Descending Los Angeles Center
02:18PM 32.7333 -117.1833 281° West  Level FlightAware Approximate
02:25PM 32.7336 -117.1897 281° West  Level Estimated